Time;durP1;ratioP1;P1;durP2;ratioP2;P2;SDS_P1;SDS_P2;PMS_P1;PMS_P2;Temp;Humidity;BMP_temperature;BMP_pressure;BME280_temperature;BME280_humidity;BME280_pressure;Samples;Min_cycle;Max_cycle;Signal;HPM_P1;HPM_P2
2022/03/20 00:00:30;;;;;;;26.73;11.50;;;;;;;0.44;53.92;102286.22;5098948;28;20043;-76
2022/03/20 00:02:55;;;;;;;26.57;12.80;;;;;;;0.55;54.05;102299.84;5090457;28;20031;-76
2022/03/20 00:05:21;;;;;;;25.57;12.20;;;;;;;0.53;54.51;102282.53;5090032;28;20342;-76
2022/03/20 00:07:46;;;;;;;32.13;12.33;;;;;;;0.78;54.31;102295.84;5088384;28;20028;-76
2022/03/20 00:10:14;;;;;;;31.73;12.43;;;;;;;0.78;54.07;102299.31;5086176;28;20108;-76
2022/03/20 00:12:40;;;;;;;23.37;10.90;;;;;;;0.63;54.75;102294.47;5088044;28;20031;-76
2022/03/20 00:15:06;;;;;;;26.73;11.60;;;;;;;0.79;54.80;102293.19;5089710;28;20033;-76
2022/03/20 00:17:31;;;;;;;26.47;11.47;;;;;;;0.81;54.59;102294.00;5092934;28;20055;-76
2022/03/20 00:19:57;;;;;;;22.77;10.73;;;;;;;0.53;54.93;102286.00;5092066;28;20040;-76
2022/03/20 00:22:24;;;;;;;22.63;10.93;;;;;;;0.52;55.63;102281.69;5088971;28;20095;-76
2022/03/20 00:24:50;;;;;;;22.37;11.20;;;;;;;0.55;55.03;102273.78;5085366;28;20260;-76
2022/03/20 00:27:16;;;;;;;21.03;10.60;;;;;;;0.53;55.01;102278.16;5088805;28;20024;-76
2022/03/20 00:29:42;;;;;;;22.47;10.83;;;;;;;0.37;55.34;102253.38;5085341;28;20101;-76
2022/03/20 00:32:10;;;;;;;22.90;11.27;;;;;;;0.58;54.92;102283.28;5088750;28;20044;-76
2022/03/20 00:34:36;;;;;;;26.27;13.17;;;;;;;0.60;54.54;102263.25;5089981;28;20046;-76
2022/03/20 00:37:02;;;;;;;24.87;11.80;;;;;;;0.49;55.16;102254.81;5090680;28;20091;-76
2022/03/20 00:39:27;;;;;;;26.70;12.67;;;;;;;0.27;55.73;102257.94;5086112;28;20033;-76
2022/03/20 00:41:53;;;;;;;23.97;11.40;;;;;;;0.27;55.70;102272.72;5091930;28;20336;-76
2022/03/20 00:44:18;;;;;;;23.13;11.27;;;;;;;0.25;56.19;102254.50;5085663;28;20349;-76
2022/03/20 00:46:44;;;;;;;30.33;10.47;;;;;;;0.39;56.14;102263.75;5089243;28;20350;-76
2022/03/20 00:49:10;;;;;;;33.93;11.23;;;;;;;0.50;55.75;102266.97;5088220;28;20044;-76
2022/03/20 00:51:36;;;;;;;23.00;11.60;;;;;;;0.32;56.22;102265.66;5089531;28;20031;-76
2022/03/20 00:54:01;;;;;;;26.37;11.47;;;;;;;0.14;56.78;102271.28;5085372;28;20036;-75
2022/03/20 00:56:27;;;;;;;31.40;11.63;;;;;;;-0.17;57.93;102256.28;5087088;28;20039;-76
2022/03/20 00:58:52;;;;;;;30.20;10.70;;;;;;;0.11;57.51;102260.91;5084117;28;20039;-76
2022/03/20 01:01:18;;;;;;;18.10;10.40;;;;;;;0.01;57.10;102252.44;5088918;28;20102;-76
2022/03/20 01:03:44;;;;;;;19.97;10.20;;;;;;;-0.06;57.93;102259.50;5086370;28;20041;-76
2022/03/20 01:06:10;;;;;;;21.77;10.07;;;;;;;-0.07;57.60;102251.72;5094092;28;20040;-76
2022/03/20 01:08:37;;;;;;;22.17;10.47;;;;;;;-0.13;57.93;102259.66;5086758;28;20056;-76
2022/03/20 01:11:03;;;;;;;23.00;11.97;;;;;;;-0.19;57.85;102247.63;5086708;28;20039;-76
2022/03/20 01:13:29;;;;;;;19.13;10.20;;;;;;;0.10;56.82;102265.28;5086539;28;20024;-76
2022/03/20 01:15:55;;;;;;;23.60;10.70;;;;;;;-0.05;57.68;102258.63;5089286;28;20351;-76
2022/03/20 01:18:21;;;;;;;24.70;10.60;;;;;;;0.01;57.40;102262.88;5087124;28;20024;-76
2022/03/20 01:20:47;;;;;;;28.13;13.67;;;;;;;-0.09;57.07;102256.97;5088795;28;20117;-75
2022/03/20 01:23:12;;;;;;;21.60;10.40;;;;;;;0.13;56.72;102264.34;5093254;28;20073;-75
2022/03/20 01:25:39;;;;;;;27.60;11.23;;;;;;;0.28;56.93;102269.22;5091963;28;20258;-75
2022/03/20 01:28:04;;;;;;;24.90;11.53;;;;;;;0.23;56.61;102247.63;5090615;28;20032;-75
2022/03/20 01:30:30;;;;;;;26.77;12.30;;;;;;;-0.10;56.54;102221.41;5090232;28;20363;-75
2022/03/20 01:32:55;;;;;;;35.03;13.00;;;;;;;0.02;56.96;102255.91;5090679;28;20096;-76
2022/03/20 01:35:21;;;;;;;28.20;12.27;;;;;;;0.10;56.71;102252.25;5093431;28;20036;-75
2022/03/20 01:37:46;;;;;;;21.77;10.77;;;;;;;-0.04;56.89;102254.25;5087787;28;20226;-76
2022/03/20 01:40:12;;;;;;;20.73;10.57;;;;;;;-0.15;57.39;102257.09;5090726;28;20110;-76
2022/03/20 01:42:40;;;;;;;19.50;9.87;;;;;;;-0.06;57.12;102253.44;5089557;28;20038;-76
2022/03/20 01:45:16;;;;;;;19.07;9.37;;;;;;;0.04;57.24;102260.19;5091950;28;20079;-76
2022/03/20 01:47:43;;;;;;;21.67;9.50;;;;;;;0.32;56.68;102258.69;5095514;28;20356;-76
2022/03/20 01:50:08;;;;;;;24.50;11.43;;;;;;;-0.05;57.18;102261.22;5092870;28;21081;-76
2022/03/20 01:52:34;;;;;;;23.83;11.07;;;;;;;-0.02;57.58;102260.28;5090810;28;20028;-76
2022/03/20 01:55:01;;;;;;;21.60;9.53;;;;;;;0.18;57.34;102254.69;5095106;28;20040;-76
2022/03/20 01:57:30;;;;;;;23.70;10.23;;;;;;;0.26;57.42;102252.75;5093042;28;20249;-75
2022/03/20 01:59:56;;;;;;;21.03;10.33;;;;;;;0.40;56.52;102252.44;5088699;28;20032;-76
2022/03/20 02:02:22;;;;;;;17.47;10.40;;;;;;;0.35;56.12;102257.75;5099299;28;20032;-76
2022/03/20 02:04:47;;;;;;;19.97;10.50;;;;;;;-0.10;57.28;102239.63;5090411;28;20042;-76
2022/03/20 02:07:13;;;;;;;24.57;10.20;;;;;;;0.03;57.46;102248.06;5093332;28;20028;-75
2022/03/20 02:09:41;;;;;;;20.93;10.13;;;;;;;-0.03;57.55;102240.34;5095919;28;20051;-75
2022/03/20 02:12:07;;;;;;;21.40;9.60;;;;;;;0.13;57.45;102254.78;5092590;28;20040;-76
2022/03/20 02:14:34;;;;;;;21.27;10.53;;;;;;;0.25;56.72;102256.25;5092225;28;20035;-75
2022/03/20 02:17:01;;;;;;;23.93;10.47;;;;;;;0.36;56.17;102259.47;5093592;28;20307;-76
2022/03/20 02:19:27;;;;;;;26.03;11.00;;;;;;;-0.05;56.00;102197.84;5088900;28;20383;-76
2022/03/20 02:21:54;;;;;;;27.90;12.77;;;;;;;0.30;55.43;102239.63;5127629;27;20035;-76
2022/03/20 02:24:44;;;;;;;36.53;14.47;;;;;;;0.10;55.97;102234.00;5092113;28;20036;-76
2022/03/20 02:27:12;;;;;;;30.53;13.30;;;;;;;0.10;56.71;102252.25;5092619;28;20046;-76
2022/03/20 02:29:39;;;;;;;27.67;12.33;;;;;;;-0.06;55.79;102228.25;5089689;28;20381;-76
2022/03/20 02:32:06;;;;;;;26.03;12.03;;;;;;;0.04;56.01;102254.13;5098178;28;20081;-75
2022/03/20 02:34:32;;;;;;;28.90;12.50;;;;;;;-0.08;56.00;102256.09;5089669;28;20228;-76
2022/03/20 02:36:58;;;;;;;27.97;13.10;;;;;;;-0.56;57.49;102250.13;5092261;28;20024;-75
2022/03/20 02:39:24;;;;;;;25.97;13.33;;;;;;;-0.56;57.89;102249.28;5086999;28;20072;-75
2022/03/20 02:41:51;;;;;;;22.53;12.20;;;;;;;-0.59;57.83;102255.41;5092310;28;20027;-76
2022/03/20 02:44:17;;;;;;;25.37;12.53;;;;;;;-0.59;57.92;102255.41;5091101;28;20063;-75
2022/03/20 02:46:43;;;;;;;34.53;14.17;;;;;;;-0.39;57.31;102250.66;5090113;28;20073;-76
2022/03/20 02:49:10;;;;;;;26.93;13.00;;;;;;;-0.40;57.44;102261.97;5089697;28;20024;-75
2022/03/20 02:51:36;;;;;;;27.93;12.83;;;;;;;-0.46;57.52;102256.88;5091042;28;20087;-76
2022/03/20 02:54:06;;;;;;;30.80;12.93;;;;;;;-0.32;56.71;102243.56;5090520;28;20791;-76
2022/03/20 02:56:33;;;;;;;26.17;12.87;;;;;;;-0.18;56.43;102245.91;5089748;28;20373;-76
2022/03/20 02:59:00;;;;;;;33.43;14.43;;;;;;;-0.01;55.85;102254.19;5087523;28;20029;-75
2022/03/20 03:01:25;;;;;;;30.10;13.20;;;;;;;-0.04;55.66;102252.50;5091905;28;20028;-75
2022/03/20 03:03:53;;;;;;;28.40;12.83;;;;;;;-0.27;56.14;102253.91;5091945;28;20348;-75
2022/03/20 03:06:19;;;;;;;24.80;12.20;;;;;;;-0.22;56.05;102252.06;5091958;28;20094;-75
2022/03/20 03:11:29;;;;;;;31.75;13.82;;;;;;;-0.39;55.59;102219.41;5089465;28;20057;-75
2022/03/20 03:13:54;;;;;;;30.57;13.63;;;;;;;-0.47;55.90;102231.75;5088230;28;20028;-76
2022/03/20 03:16:20;;;;;;;28.23;13.20;;;;;;;-0.55;56.67;102249.25;5089735;28;20088;-76
2022/03/20 03:18:47;;;;;;;26.80;13.27;;;;;;;-0.48;56.56;102252.59;5088006;28;20062;-75
2022/03/20 03:21:14;;;;;;;29.50;14.17;;;;;;;-0.61;56.98;102248.50;5089193;28;20051;-75
2022/03/20 03:23:40;;;;;;;33.23;13.47;;;;;;;-0.58;57.00;102258.88;5086550;28;20071;-75
2022/03/20 03:26:07;;;;;;;31.67;14.77;;;;;;;-0.54;57.25;102252.72;5094425;28;20215;-76
2022/03/20 03:28:37;;;;;;;35.43;15.10;;;;;;;-0.36;56.89;102253.19;5090723;28;20039;-75
2022/03/20 03:31:10;;;;;;;30.53;15.20;;;;;;;-0.44;57.07;102246.44;5095130;28;20031;-75
2022/03/20 03:35:41;;;;;;;36.05;14.75;;;;;;;-0.29;56.83;102251.31;5089411;28;20059;-75
2022/03/20 03:36:26;;;;;;;30.27;14.67;;;;;;;-0.39;57.29;102253.25;5087958;28;20048;-75
2022/03/20 03:38:52;;;;;;;34.37;14.43;;;;;;;-0.41;57.35;102248.97;5093059;28;20032;-76
2022/03/20 03:41:17;;;;;;;29.17;14.20;;;;;;;-0.44;57.19;102247.28;5085027;28;20032;-75
2022/03/20 03:43:43;;;;;;;30.43;16.00;;;;;;;-0.41;56.72;102236.81;5091635;28;20028;-76
2022/03/20 03:46:09;;;;;;;31.77;15.67;;;;;;;-0.44;56.75;102252.50;5092401;28;20059;-75
2022/03/20 03:48:34;;;;;;;34.10;16.47;;;;;;;-0.37;56.75;102253.22;5090279;28;20020;-76
2022/03/20 03:50:59;;;;;;;31.13;14.57;;;;;;;-0.29;56.82;102250.47;5091809;28;20137;-76
2022/03/20 03:53:25;;;;;;;28.97;14.47;;;;;;;-0.35;57.01;102247.09;5088990;28;20040;-76
2022/03/20 03:55:50;;;;;;;33.83;14.53;;;;;;;-0.42;56.88;102245.50;5086089;28;20296;-76
2022/03/20 03:58:16;;;;;;;29.73;15.10;;;;;;;-0.25;56.59;102250.38;5089783;28;20028;-75
2022/03/20 04:00:43;;;;;;;29.00;15.57;;;;;;;-0.05;56.07;102257.75;5087182;28;20517;-75
2022/03/20 04:03:08;;;;;;;29.63;14.53;;;;;;;0.03;56.05;102261.09;5088516;28;20031;-76
2022/03/20 04:05:34;;;;;;;29.80;15.07;;;;;;;-0.35;56.35;102200.25;5087954;28;20042;-76
2022/03/20 04:08:00;;;;;;;36.93;17.90;;;;;;;0.16;55.61;102254.72;5090804;28;20027;-75
2022/03/20 04:10:25;;;;;;;34.53;16.57;;;;;;;0.06;55.66;102239.31;5087311;28;20329;-76
2022/03/20 04:12:51;;;;;;;33.13;16.50;;;;;;;0.05;55.24;102233.25;5091580;28;20214;-75
2022/03/20 04:15:23;;;;;;;42.47;17.83;;;;;;;0.05;55.76;102256.69;5084619;28;20032;-75
2022/03/20 04:17:49;;;;;;;51.20;18.40;;;;;;;-0.12;56.15;102254.44;5087042;28;20035;-75
2022/03/20 04:20:14;;;;;;;37.77;17.27;;;;;;;-0.06;56.28;102256.91;5088754;28;20219;-76
2022/03/20 04:23:42;;;;;;;37.53;16.67;;;;;;;-0.11;56.46;102237.06;5090729;28;20036;-76
2022/03/20 04:25:30;;;;;;;35.97;16.70;;;;;;;-0.08;56.18;102256.09;5088450;28;20044;-75
2022/03/20 04:27:59;;;;;;;36.07;17.33;;;;;;;0.06;55.95;102262.78;5086476;28;20028;-75
2022/03/20 04:30:26;;;;;;;35.13;17.30;;;;;;;0.00;55.33;102263.75;5086101;28;20032;-76
2022/03/20 04:32:53;;;;;;;39.30;17.73;;;;;;;-0.08;55.92;102237.84;5093643;28;20094;-76
2022/03/20 04:35:23;;;;;;;37.57;17.87;;;;;;;0.20;55.42;102269.38;5086353;28;20045;-76
2022/03/20 04:37:49;;;;;;;38.87;17.60;;;;;;;0.22;55.56;102272.81;5086115;28;20028;-76
2022/03/20 04:40:15;;;;;;;32.60;16.90;;;;;;;0.01;55.66;102230.75;5091736;28;20062;-76
2022/03/20 04:42:40;;;;;;;39.37;16.80;;;;;;;-0.06;54.65;102211.78;5091184;28;20039;-75
2022/03/20 04:45:06;;;;;;;56.33;18.47;;;;;;;0.29;54.26;102263.09;5086259;28;20313;-76
2022/03/20 04:58:30;;;;;;;33.97;15.23;;;;;;;0.17;54.57;102246.00;5084424;28;21224;-76
2022/03/20 05:00:56;;;;;;;37.37;16.67;;;;;;;0.18;54.49;102265.97;5090338;28;20148;-76
2022/03/20 05:03:23;;;;;;;38.17;16.30;;;;;;;0.36;54.33;102266.44;5085754;28;20040;-76
2022/03/20 05:05:48;;;;;;;42.17;18.10;;;;;;;0.46;53.85;102267.94;5087625;28;20032;-76
2022/03/20 05:08:14;;;;;;;36.03;16.77;;;;;;;0.39;53.56;102259.41;5086948;28;20082;-75
2022/03/20 05:13:23;;;;;;;36.20;16.13;;;;;;;0.27;53.90;102252.72;5092665;28;20340;-76
2022/03/20 05:15:49;;;;;;;37.10;17.37;;;;;;;0.51;54.04;102269.53;5088034;28;20032;-76
2022/03/20 05:18:15;;;;;;;26.97;14.30;;;;;;;0.45;53.81;102263.59;5086156;28;20062;-76
2022/03/20 05:20:43;;;;;;;33.63;14.73;;;;;;;0.44;53.84;102282.75;5086141;28;20333;-75
2022/03/20 05:23:09;;;;;;;34.13;13.73;;;;;;;0.45;54.31;102261.00;5086068;28;20217;-76
2022/03/20 05:25:35;;;;;;;29.80;14.13;;;;;;;0.53;54.29;102274.72;5086722;28;20032;-76
2022/03/20 05:28:00;;;;;;;31.80;13.57;;;;;;;0.77;53.83;102268.91;5088884;28;20048;-76
2022/03/20 05:30:26;;;;;;;39.33;15.60;;;;;;;0.74;54.17;102274.19;5088446;28;20035;-76
2022/03/20 05:32:52;;;;;;;31.93;14.67;;;;;;;0.70;54.13;102246.47;5089757;28;20095;-76
2022/03/20 05:35:17;;;;;;;44.00;15.50;;;;;;;1.18;53.31;102272.22;5086652;28;20032;-76
2022/03/20 05:37:44;;;;;;;34.17;16.53;;;;;;;1.08;52.83;102295.09;5088388;28;20052;-76
2022/03/20 05:40:10;;;;;;;40.57;17.67;;;;;;;0.77;53.86;102266.28;5087277;28;20623;-76
2022/03/20 05:42:36;;;;;;;41.37;18.03;;;;;;;1.10;54.01;102276.78;5086678;28;20020;-76
2022/03/20 05:45:02;;;;;;;35.97;14.80;;;;;;;1.26;53.68;102265.06;5083714;28;20028;-76
2022/03/20 05:47:32;;;;;;;38.33;15.97;;;;;;;1.76;53.11;102279.31;5088237;28;20354;-76
2022/03/20 05:50:01;;;;;;;39.53;15.13;;;;;;;2.24;51.26;102270.94;5083282;28;20036;-76
2022/03/20 05:52:29;;;;;;;40.13;15.10;;;;;;;2.38;50.52;102284.44;5087934;28;20040;-76
2022/03/20 05:54:55;;;;;;;41.47;17.37;;;;;;;2.96;49.50;102284.31;5092288;28;20070;-76
2022/03/20 06:00:05;;;;;;;23.90;13.48;;;;;;;3.34;48.33;102286.50;5084982;28;20270;-76
2022/03/20 06:02:30;;;;;;;30.53;12.77;;;;;;;3.79;47.09;102284.00;5090274;28;20047;-76
2022/03/20 06:04:55;;;;;;;27.30;13.83;;;;;;;3.95;46.20;102275.56;5083298;28;20286;-76
2022/03/20 06:07:21;;;;;;;26.47;12.10;;;;;;;3.89;45.40;102281.03;5086664;28;20024;-76
2022/03/20 06:09:46;;;;;;;20.10;11.63;;;;;;;3.89;45.56;102281.03;5092232;28;20353;-76
2022/03/20 06:12:12;;;;;;;31.63;15.37;;;;;;;3.90;45.48;102270.47;5088707;28;20158;-76
2022/03/20 06:14:38;;;;;;;31.70;13.90;;;;;;;4.22;45.10;102294.66;5089365;28;20073;-77
2022/03/20 06:17:05;;;;;;;30.07;13.97;;;;;;;4.27;44.74;102261.25;5087808;28;20307;-77
2022/03/20 06:19:30;;;;;;;22.63;12.55;;;;;;;4.84;43.81;102281.66;5092054;28;20036;-76
2022/03/20 06:21:56;;;;;;;25.00;12.13;;;;;;;5.25;43.22;102284.31;5084442;28;20095;-76
2022/03/20 06:24:21;;;;;;;26.88;13.45;;;;;;;5.73;42.14;102284.78;5088565;28;20059;-76
2022/03/20 06:26:46;;;;;;;26.17;11.83;;;;;;;5.81;41.25;102280.97;5088056;28;20248;-76
2022/03/20 06:29:12;;;;;;;28.95;12.90;;;;;;;5.80;40.41;102289.78;5098566;28;20222;-76
2022/03/20 06:31:38;;;;;;;26.83;12.35;;;;;;;5.77;41.21;102280.25;5095791;28;20256;-77
2022/03/20 06:34:04;;;;;;;19.02;10.40;;;;;;;5.69;41.09;102285.00;5092736;28;20305;-76
2022/03/20 06:36:30;;;;;;;19.00;9.55;;;;;;;5.51;39.52;102267.41;5092848;28;20032;-76
2022/03/20 06:38:56;;;;;;;14.65;8.70;;;;;;;5.64;39.52;102281.72;5088825;28;20027;-76
2022/03/20 06:41:22;;;;;;;17.25;8.90;;;;;;;5.58;39.00;102271.47;5091662;28;20032;-76
2022/03/20 06:43:47;;;;;;;19.55;10.70;;;;;;;6.29;39.56;102284.00;5090130;28;20032;-77
2022/03/20 06:46:13;;;;;;;20.33;9.40;;;;;;;6.49;37.63;102269.03;5092186;28;20028;-77
2022/03/20 06:48:38;;;;;;;17.13;9.20;;;;;;;6.59;37.30;102265.88;5089428;28;20383;-76
2022/03/20 06:51:04;;;;;;;18.70;8.98;;;;;;;6.91;36.22;102289.78;5092234;28;20084;-76
2022/03/20 06:53:30;;;;;;;23.30;9.40;;;;;;;7.14;35.79;102273.66;5091263;28;20032;-76
2022/03/20 06:55:56;;;;;;;21.05;10.15;;;;;;;7.49;35.05;102269.22;5096200;28;20020;-76
2022/03/20 06:58:23;;;;;;;16.30;7.75;;;;;;;7.82;34.56;102292.97;5091938;28;20042;-76
2022/03/20 07:00:51;;;;;;;13.80;7.05;;;;;;;7.83;33.94;102268.28;5091608;28;20032;-77
2022/03/20 07:03:17;;;;;;;12.23;6.38;;;;;;;7.55;34.23;102279.44;5086973;28;20268;-76
2022/03/20 07:05:42;;;;;;;14.73;7.47;;;;;;;7.36;33.81;102252.34;5093054;28;20222;-77
2022/03/20 07:08:09;;;;;;;14.93;7.30;;;;;;;7.51;33.98;102256.81;5088325;28;20505;-77
2022/03/20 07:10:35;;;;;;;13.90;6.70;;;;;;;7.97;33.96;102278.09;5089833;28;20031;-77
2022/03/20 07:15:48;;;;;;;17.90;6.97;;;;;;;8.16;32.15;102285.84;5095369;28;20070;-76
2022/03/20 07:18:16;;;;;;;16.38;6.57;;;;;;;8.22;31.93;102280.22;5084354;28;20346;-77
2022/03/20 07:20:44;;;;;;;9.93;6.18;;;;;;;7.59;31.45;102259.91;5087986;28;20058;-77
2022/03/20 07:23:09;;;;;;;10.52;6.15;;;;;;;7.30;32.64;102271.97;5088372;28;20092;-77
2022/03/20 07:31:04;;;;;;;;;;;;;;;8.65;31.24;102262.88;5091463;28;20324;-77
2022/03/20 07:33:29;;;;;;;11.10;6.25;;;;;;;8.82;30.65;102249.53;5086724;28;19916;-77
2022/03/20 07:35:55;;;;;;;12.57;6.38;;;;;;;8.88;29.70;102257.09;5085720;28;20020;-77
2022/03/20 07:38:20;;;;;;;13.20;6.32;;;;;;;8.90;29.87;102236.72;5090235;28;20039;-77
2022/03/20 07:40:46;;;;;;;11.70;6.22;;;;;;;8.72;29.88;102266.00;5090244;28;20056;-76
2022/03/20 07:43:11;;;;;;;13.82;6.18;;;;;;;8.84;30.06;102263.50;5086975;28;20529;-77
2022/03/20 07:45:37;;;;;;;11.27;6.47;;;;;;;8.54;30.54;102244.16;5092488;28;20097;-76
2022/03/20 07:48:03;;;;;;;15.48;7.60;;;;;;;8.50;30.81;102269.03;5086428;28;20052;-77
2022/03/20 07:50:28;;;;;;;17.60;8.15;;;;;;;8.67;31.15;102255.72;5086075;28;20036;-76
2022/03/20 07:52:56;;;;;;;13.80;7.25;;;;;;;8.98;30.59;102256.56;5090270;28;20044;-77
2022/03/20 07:55:23;;;;;;;15.73;6.22;;;;;;;8.93;29.71;102241.81;5089532;28;20032;-77
2022/03/20 07:57:48;;;;;;;15.85;5.95;;;;;;;8.95;29.39;102239.09;5090111;28;20028;-77
2022/03/20 08:00:14;;;;;;;12.15;6.10;;;;;;;8.71;30.06;102229.97;5087471;28;20034;-77
2022/03/20 08:02:41;;;;;;;10.48;5.43;;;;;;;8.53;29.03;102247.72;5088233;28;20521;-77
2022/03/20 08:05:07;;;;;;;13.65;5.25;;;;;;;8.24;30.06;102225.56;5087078;28;20060;-77
2022/03/20 08:07:39;;;;;;;12.35;5.05;;;;;;;8.56;29.33;102242.28;5092076;28;20028;-77
2022/03/20 08:10:06;;;;;;;9.45;4.57;;;;;;;8.69;28.05;102237.97;5087249;28;20338;-77
2022/03/20 08:12:32;;;;;;;11.77;5.03;;;;;;;9.11;28.23;102231.94;5090116;28;20032;-77
2022/03/20 08:14:58;;;;;;;7.97;4.60;;;;;;;9.41;26.93;102226.63;5092682;28;20256;-77
2022/03/20 08:17:24;;;;;;;9.23;5.53;;;;;;;9.36;27.46;102220.75;5086103;28;20037;-77
2022/03/20 08:19:49;;;;;;;11.20;5.07;;;;;;;9.36;26.96;102218.09;5089653;28;20062;-77
2022/03/20 08:22:15;;;;;;;12.93;5.10;;;;;;;9.56;27.00;102203.66;5085807;28;20060;-77
2022/03/20 08:24:41;;;;;;;11.18;5.32;;;;;;;9.82;26.11;102194.09;5086242;28;20040;-77
2022/03/20 08:27:07;;;;;;;10.25;4.95;;;;;;;9.80;26.37;102207.41;5086245;28;20042;-77
2022/03/20 08:29:32;;;;;;;9.85;4.93;;;;;;;9.81;25.95;102190.59;5092288;28;20036;-77
2022/03/20 08:31:58;;;;;;;18.17;6.43;;;;;;;10.16;25.66;102208.66;5094591;28;20032;-77
2022/03/20 08:34:24;;;;;;;12.45;5.55;;;;;;;10.17;25.94;102213.00;5086144;28;20401;-77
2022/03/20 08:36:49;;;;;;;7.50;4.82;;;;;;;10.16;25.90;102190.13;5089981;28;20039;-77
2022/03/20 08:39:14;;;;;;;11.60;4.72;;;;;;;10.11;25.18;102202.81;5092676;28;20032;-76
2022/03/20 08:41:43;;;;;;;8.18;5.00;;;;;;;10.16;25.55;102198.91;5089592;28;20028;-77
2022/03/20 08:44:08;;;;;;;8.35;4.68;;;;;;;10.28;24.37;102192.00;5086616;28;20043;-77
2022/03/20 08:46:34;;;;;;;10.88;5.80;;;;;;;10.30;25.06;102184.81;5089172;28;20040;-77
2022/03/20 08:49:07;;;;;;;10.70;5.90;;;;;;;9.43;25.80;102181.56;5086859;28;20032;-77
2022/03/20 08:51:34;;;;;;;11.57;4.60;;;;;;;9.24;25.40;102169.47;5093440;28;20036;-77
2022/03/20 08:54:01;;;;;;;7.82;4.38;;;;;;;9.45;24.48;102177.03;5088503;28;20066;-77
2022/03/20 08:56:28;;;;;;;9.73;5.57;;;;;;;9.63;23.99;102169.75;5087151;28;20036;-77
2022/03/20 08:58:54;;;;;;;12.77;4.60;;;;;;;9.37;25.30;102143.16;5085996;28;20361;-77
2022/03/20 09:01:20;;;;;;;9.88;4.18;;;;;;;9.48;24.56;102155.69;5094980;28;20060;-77
2022/03/20 09:03:49;;;;;;;10.45;5.05;;;;;;;9.42;25.56;102164.88;5094722;28;20095;-77
2022/03/20 09:06:15;;;;;;;10.13;4.95;;;;;;;9.81;24.87;102173.88;5090127;28;20314;-77
2022/03/20 09:08:43;;;;;;;15.90;6.32;;;;;;;9.54;24.50;102168.53;5086298;28;20399;-77
2022/03/20 09:11:08;;;;;;;8.40;4.72;;;;;;;10.15;23.98;102161.94;5085714;28;20210;-77
2022/03/20 09:13:33;;;;;;;12.65;5.10;;;;;;;10.19;24.09;102139.63;5086405;28;20048;-77
2022/03/20 09:21:28;;;;;;;8.40;4.43;;;;;;;10.21;23.57;102130.66;5087557;28;20073;-77
2022/03/20 09:23:54;;;;;;;9.13;4.47;;;;;;;9.96;23.89;102124.41;5087464;28;20033;-77
2022/03/20 09:26:19;;;;;;;10.38;4.85;;;;;;;10.44;23.46;102133.59;5090586;28;20032;-77
2022/03/20 09:28:46;;;;;;;8.32;4.47;;;;;;;10.62;23.91;102148.25;5085431;28;20075;-77
2022/03/20 09:31:13;;;;;;;16.77;5.97;;;;;;;10.37;22.80;102140.22;5088511;28;20040;-75
2022/03/20 09:33:38;;;;;;;11.40;5.25;;;;;;;9.50;24.43;102151.16;5082952;28;20032;-77
2022/03/20 09:36:04;;;;;;;12.95;5.30;;;;;;;9.53;23.43;102137.75;5086266;28;20055;-77
2022/03/20 09:38:30;;;;;;;7.82;4.35;;;;;;;9.18;23.63;102108.19;5085746;28;20040;-77
2022/03/20 09:40:59;;;;;;;7.05;4.20;;;;;;;9.53;24.85;102140.38;5087659;28;20226;-77
2022/03/20 09:43:25;;;;;;;9.10;3.95;;;;;;;9.81;22.75;102142.97;5088193;28;20027;-77
2022/03/20 09:45:53;;;;;;;10.02;4.45;;;;;;;9.73;23.84;102120.59;5090447;28;20105;-77
2022/03/20 09:48:18;;;;;;;9.27;4.20;;;;;;;9.52;23.66;102128.09;5092879;28;20032;-77
2022/03/20 09:50:47;;;;;;;7.93;4.35;;;;;;;9.18;24.11;102122.25;5087823;28;20031;-76
2022/03/20 09:53:12;;;;;;;8.73;4.50;;;;;;;8.99;24.35;102119.06;5090052;28;20060;-77
2022/03/20 09:55:37;;;;;;;10.52;4.80;;;;;;;8.94;24.90;102111.41;5092196;28;20063;-77
2022/03/20 09:58:03;;;;;;;6.63;3.88;;;;;;;8.96;23.76;102106.88;5094779;28;20183;-77
2022/03/20 10:00:30;;;;;;;8.43;3.63;;;;;;;8.29;23.73;102104.72;5092286;28;20378;-77
2022/03/20 10:02:56;;;;;;;6.75;3.95;;;;;;;8.62;26.18;102100.16;5092907;28;20056;-76
2022/03/20 10:05:26;;;;;;;8.00;3.72;;;;;;;9.02;24.82;102104.81;5092393;28;20270;-77
2022/03/20 10:07:51;;;;;;;7.70;4.20;;;;;;;8.95;25.61;102101.69;5093202;28;20121;-76
2022/03/20 10:10:20;;;;;;;5.90;3.75;;;;;;;8.90;24.89;102103.75;5090290;28;20044;-76
2022/03/20 10:12:49;;;;;;;5.25;3.72;;;;;;;9.13;25.12;102097.91;5091963;28;20032;-77
2022/03/20 10:15:28;;;;;;;8.90;4.20;;;;;;;9.27;25.18;102089.97;5087747;28;20345;-77
2022/03/20 10:18:09;;;;;;;6.75;3.88;;;;;;;9.32;24.23;102092.31;5089815;28;20028;-77
2022/03/20 10:20:37;;;;;;;10.50;4.25;;;;;;;9.37;25.04;102086.78;5090677;28;20056;-77
2022/03/20 10:23:04;;;;;;;8.15;4.72;;;;;;;9.40;25.10;102082.13;5090930;28;20032;-77
2022/03/20 10:25:30;;;;;;;6.30;3.65;;;;;;;9.57;24.74;102091.63;5094088;28;20027;-76
2022/03/20 10:27:57;;;;;;;7.93;4.15;;;;;;;9.67;24.93;102092.75;5093872;28;20094;-77
2022/03/20 10:30:23;;;;;;;9.25;3.88;;;;;;;9.57;24.62;102070.47;5088361;28;20042;-77
2022/03/20 10:32:50;;;;;;;8.45;4.03;;;;;;;9.65;24.54;102084.06;5090875;28;20329;-77
2022/03/20 10:35:17;;;;;;;9.40;3.65;;;;;;;9.71;24.94;102085.47;5088050;28;20035;-77
2022/03/20 10:37:55;;;;;;;13.15;5.13;;;;;;;9.97;23.12;102081.09;5092682;28;20047;-77
2022/03/20 10:40:28;;;;;;;6.10;3.60;;;;;;;9.83;23.28;102069.63;5089072;28;20058;-78
2022/03/20 10:43:14;;;;;;;6.68;3.83;;;;;;;9.49;23.66;102064.84;5091539;28;20033;-76
2022/03/20 10:45:49;;;;;;;7.05;4.10;;;;;;;9.65;24.95;102078.75;5091257;28;20028;-77
2022/03/20 10:48:21;;;;;;;6.20;4.15;;;;;;;9.44;24.63;102062.47;5095923;28;20086;-77
2022/03/20 10:50:48;;;;;;;8.40;3.78;;;;;;;9.44;24.49;102069.56;5088781;28;20039;-77
2022/03/20 10:53:13;;;;;;;6.38;3.35;;;;;;;9.59;23.21;102055.34;5087257;28;20036;-77
2022/03/20 10:55:39;;;;;;;7.10;3.78;;;;;;;9.53;23.81;102064.53;5085876;28;20307;-77
2022/03/20 10:58:20;;;;;;;8.05;3.97;;;;;;;9.70;23.13;102038.78;5090756;28;20381;-77
2022/03/20 11:00:46;;;;;;;11.55;3.80;;;;;;;9.74;25.17;102048.22;5087716;28;20045;-77
2022/03/20 11:03:19;;;;;;;5.72;3.80;;;;;;;9.24;23.75;102047.84;5087472;28;20105;-77
2022/03/20 11:05:45;;;;;;;8.00;4.43;;;;;;;9.50;22.69;102034.78;5082123;28;20505;-77
2022/03/20 11:08:11;;;;;;;7.90;3.47;;;;;;;9.48;24.37;102048.13;5094045;28;20467;-77
2022/03/20 11:10:37;;;;;;;16.58;6.63;;;;;;;9.26;23.86;102050.41;5085075;28;20218;-77
2022/03/20 11:13:04;;;;;;;22.90;7.88;;;;;;;9.09;24.99;102051.47;5090017;28;20104;-76
2022/03/20 11:15:32;;;;;;;9.32;4.30;;;;;;;9.40;24.45;102046.91;5085715;28;20596;-77
2022/03/20 11:17:59;;;;;;;7.05;3.58;;;;;;;9.45;23.81;102037.72;5092492;28;20132;-76
2022/03/20 11:20:29;;;;;;;10.90;4.50;;;;;;;9.35;23.87;102039.25;5088557;28;20051;-77
2022/03/20 11:22:55;;;;;;;7.47;3.28;;;;;;;9.50;24.78;102037.44;5094406;28;20042;-76
2022/03/20 11:25:24;;;;;;;7.78;4.18;;;;;;;9.34;23.70;102026.97;5088827;28;20289;-77
2022/03/20 11:27:59;;;;;;;7.47;4.00;;;;;;;8.59;24.09;102018.47;5087869;28;20130;-77
2022/03/20 11:30:30;;;;;;;11.23;4.28;;;;;;;8.95;23.97;102025.06;5092449;28;20025;-77
2022/03/20 11:32:58;;;;;;;7.43;3.70;;;;;;;9.25;24.98;102017.84;5090136;28;20051;-77
2022/03/20 11:35:27;;;;;;;7.50;3.80;;;;;;;9.44;24.13;102004.31;5095294;28;20310;-77
2022/03/20 11:37:55;;;;;;;4.93;3.40;;;;;;;9.57;23.29;102004.34;5089422;28;20044;-77
2022/03/20 11:40:22;;;;;;;6.78;3.67;;;;;;;9.51;23.76;102007.41;5089955;28;20346;-77
2022/03/20 11:43:10;;;;;;;7.85;4.13;;;;;;;8.90;24.03;102014.78;5086410;28;20043;-77
2022/03/20 11:45:36;;;;;;;9.05;3.97;;;;;;;9.14;23.36;102000.97;5090535;28;20044;-77
2022/03/20 11:48:15;;;;;;;7.53;3.67;;;;;;;9.37;24.63;101984.50;5094101;28;20345;-77
2022/03/20 11:50:48;;;;;;;8.35;3.67;;;;;;;9.40;24.08;101984.28;5085439;28;20028;-77
2022/03/20 11:53:26;;;;;;;9.40;3.78;;;;;;;9.35;24.22;101996.09;5090521;28;20044;-77